Spring Hill, South Carolina
Current Conditions -  °F | °C
As of 1:58 AM on Sunday 21 Dec 2014 (Local Time) from KSSC Reporting Station
Overcast Overcast  
Wind Chill: 37°   Ceiling: 7000
Heat Index: 41°   Visibility: 10mi
Dew Point: 38°   Wind: 7mph
Humidity: 88%   Direction: 30°NNE
Pressure: 30.22"   Gusts: NA
Location:  34.1106°N, 80.4967°W
Report Text: KSSC 210658Z AUTO 03006KT 10SM SCT022 OVC070 05/03 A3022 RMK AO2 SLP236 T00520034 $
Loading
Personal Weather Stations






























Interactive Weather Map New forecast layout! Learn more

10-Day Weather Forecast

Advertisements
Track Severe Weather on mobile